createdAt,value
2018-09-14T00:01:32.006Z,21.43
2018-09-14T00:04:01.036Z,21.45
2018-09-14T00:06:29.351Z,21.36
2018-09-14T00:08:57.829Z,21.40
2018-09-14T00:11:26.263Z,21.41
2018-09-14T00:13:55.131Z,21.43
2018-09-14T00:16:23.544Z,21.54
2018-09-14T00:18:52.159Z,21.60
2018-09-14T00:21:20.565Z,21.54
2018-09-14T00:23:49.023Z,21.54
2018-09-14T00:26:17.456Z,21.52
2018-09-14T00:28:45.888Z,21.55
2018-09-14T00:31:14.734Z,21.61
2018-09-14T00:33:43.686Z,21.63
2018-09-14T00:36:12.053Z,21.55
2018-09-14T00:38:40.577Z,21.41
2018-09-14T00:41:09.116Z,21.28
2018-09-14T00:43:37.515Z,21.18
2018-09-14T00:46:06.216Z,21.14
2018-09-14T00:48:34.929Z,21.09
2018-09-14T00:51:03.372Z,21.02
2018-09-14T00:53:32.295Z,21.01
2018-09-14T00:56:00.776Z,21.07
2018-09-14T00:58:29.213Z,21.06
2018-09-14T01:00:57.585Z,20.93
2018-09-14T01:03:26.154Z,20.97
2018-09-14T01:05:54.587Z,21.10
2018-09-14T01:08:23.664Z,21.08
2018-09-14T01:10:52.202Z,21.09
2018-09-14T01:13:20.761Z,21.00
2018-09-14T01:15:49.330Z,20.96
2018-09-14T01:18:17.819Z,20.93
2018-09-14T01:20:46.519Z,20.93
2018-09-14T01:23:14.905Z,20.93
2018-09-14T01:25:43.374Z,20.95
2018-09-14T01:28:12.744Z,20.90
2018-09-14T01:30:41.186Z,20.90
2018-09-14T01:33:09.777Z,20.85
2018-09-14T01:35:43.423Z,20.79
2018-09-14T01:38:11.767Z,20.75
2018-09-14T01:40:40.164Z,20.70
2018-09-14T01:43:08.696Z,20.73
2018-09-14T01:45:37.153Z,20.73
2018-09-14T01:48:05.506Z,20.60
2018-09-14T01:50:33.826Z,20.54
2018-09-14T01:53:02.258Z,20.50
2018-09-14T01:55:32.297Z,20.46
2018-09-14T01:58:00.640Z,20.47
2018-09-14T02:00:28.984Z,20.44
2018-09-14T02:02:57.331Z,20.42
2018-09-14T02:05:25.678Z,20.45
2018-09-14T02:07:56.338Z,20.47
2018-09-14T02:10:24.925Z,20.46
2018-09-14T02:12:54.167Z,20.49
2018-09-14T02:15:23.141Z,20.45
2018-09-14T02:17:51.512Z,20.40
2018-09-14T02:20:20.206Z,20.34
2018-09-14T02:22:49.714Z,20.24
2018-09-14T02:25:20.062Z,20.22
2018-09-14T02:27:49.741Z,20.18
2018-09-14T02:30:18.332Z,20.20
2018-09-14T02:32:46.664Z,20.18
2018-09-14T02:35:15.107Z,20.13
2018-09-14T02:37:43.520Z,20.10
2018-09-14T02:40:11.877Z,20.09
2018-09-14T02:42:40.340Z,20.05
2018-09-14T02:45:08.758Z,20.05
2018-09-14T02:47:37.193Z,20.09
2018-09-14T02:50:05.589Z,20.10
2018-09-14T02:52:35.344Z,20.09
2018-09-14T02:55:03.852Z,20.17
2018-09-14T02:57:32.167Z,20.23
2018-09-14T03:00:00.690Z,20.24
2018-09-14T03:02:29.016Z,20.26
2018-09-14T03:04:57.363Z,20.29
2018-09-14T03:07:25.760Z,20.29
2018-09-14T03:09:54.208Z,20.30
2018-09-14T03:12:24.129Z,20.30
2018-09-14T03:14:52.567Z,20.26
2018-09-14T03:17:20.952Z,20.25
2018-09-14T03:19:49.373Z,20.24
2018-09-14T03:22:17.813Z,20.29
2018-09-14T03:24:48.191Z,20.32
2018-09-14T03:27:16.575Z,20.28
2018-09-14T03:29:46.513Z,20.22
2018-09-14T03:32:15.056Z,20.24
2018-09-14T03:34:43.340Z,20.31
2018-09-14T03:37:11.936Z,20.38
2018-09-14T03:39:42.816Z,20.36
2018-09-14T03:42:11.268Z,20.28
2018-09-14T03:44:40.718Z,20.16
2018-09-14T03:47:09.095Z,20.15
2018-09-14T03:49:37.526Z,20.16
2018-09-14T03:52:06.118Z,20.19
2018-09-14T03:54:34.472Z,20.23
2018-09-14T03:57:05.091Z,20.23
2018-09-14T03:59:36.477Z,20.20
2018-09-14T04:02:05.783Z,20.17
2018-09-14T04:04:34.492Z,20.18
2018-09-14T04:07:02.958Z,20.15
2018-09-14T04:09:32.048Z,20.14
2018-09-14T04:12:00.764Z,20.09
2018-09-14T04:14:29.276Z,20.06
2018-09-14T04:16:57.649Z,20.02
2018-09-14T04:19:25.968Z,20.00
2018-09-14T04:21:54.504Z,20.02
2018-09-14T04:24:22.964Z,19.96
2018-09-14T04:26:51.432Z,19.92
2018-09-14T04:29:20.607Z,19.88
2018-09-14T04:31:48.986Z,19.85
2018-09-14T04:34:17.319Z,19.85
2018-09-14T04:36:45.770Z,19.84
2018-09-14T04:39:14.192Z,19.76
2018-09-14T04:41:42.641Z,19.72
2018-09-14T04:44:11.109Z,19.73
2018-09-14T04:46:39.542Z,19.70
2018-09-14T04:49:07.923Z,19.60
2018-09-14T04:51:37.811Z,19.45
2018-09-14T04:54:06.221Z,19.39
2018-09-14T04:56:34.567Z,19.34
2018-09-14T04:59:03.021Z,19.26
2018-09-14T05:01:31.331Z,19.24
2018-09-14T05:03:59.761Z,19.26
2018-09-14T05:06:28.099Z,19.24
2018-09-14T05:08:56.429Z,19.16
2018-09-14T05:11:24.848Z,19.16
2018-09-14T05:13:53.421Z,19.22
2018-09-14T05:16:24.262Z,19.15
2018-09-14T05:18:52.656Z,18.98
2018-09-14T05:21:22.146Z,19.00
2018-09-14T05:23:50.495Z,18.94
2018-09-14T05:26:18.924Z,18.77
2018-09-14T05:28:47.312Z,18.70
2018-09-14T05:31:16.985Z,18.65
2018-09-14T05:33:45.304Z,18.64
2018-09-14T05:36:13.804Z,18.63
2018-09-14T05:38:42.145Z,18.57
2018-09-14T05:41:10.528Z,18.65
2018-09-14T05:43:39.027Z,18.79
2018-09-14T05:46:08.916Z,18.80
2018-09-14T05:48:37.265Z,18.82
2018-09-14T05:51:08.312Z,18.78
2018-09-14T05:53:36.708Z,18.84
2018-09-14T05:56:05.108Z,18.92
2018-09-14T05:58:33.497Z,18.91
2018-09-14T06:01:01.852Z,18.91
2018-09-14T06:03:30.224Z,18.88
2018-09-14T06:05:59.776Z,18.87
2018-09-14T06:08:28.217Z,18.92
2018-09-14T06:10:56.596Z,18.99
2018-09-14T06:13:25.175Z,18.98
2018-09-14T06:15:53.661Z,19.04
2018-09-14T06:18:24.469Z,19.12
2018-09-14T06:20:53.062Z,19.22
2018-09-14T06:23:21.405Z,19.25
2018-09-14T06:25:50.013Z,19.28
2018-09-14T06:28:18.371Z,19.25
2018-09-14T06:30:49.070Z,19.21
2018-09-14T06:33:17.499Z,19.12
2018-09-14T06:35:45.997Z,19.10
2018-09-14T06:38:14.353Z,19.18
2018-09-14T06:40:43.943Z,19.18
2018-09-14T06:43:12.829Z,19.17
2018-09-14T06:45:41.419Z,19.14
2018-09-14T06:48:11.188Z,19.19
2018-09-14T06:50:39.575Z,19.23
2018-09-14T06:53:07.904Z,19.26
2018-09-14T06:55:37.639Z,19.27
2018-09-14T06:58:06.049Z,19.34
2018-09-14T07:00:36.669Z,19.37
2018-09-14T07:03:05.919Z,19.38
2018-09-14T07:05:34.440Z,19.44
2018-09-14T07:08:03.478Z,19.41
2018-09-14T07:10:32.001Z,19.41
2018-09-14T07:13:00.598Z,19.45
2018-09-14T07:15:30.369Z,19.42
2018-09-14T07:17:58.794Z,19.41
2018-09-14T07:20:27.198Z,19.46
2018-09-14T07:22:55.643Z,19.39
2018-09-14T07:25:24.042Z,19.34
2018-09-14T07:27:52.697Z,19.37
2018-09-14T07:30:21.082Z,19.47
2018-09-14T07:32:49.493Z,19.55
2018-09-14T07:35:18.138Z,19.61
2018-09-14T07:37:46.606Z,19.58
2018-09-14T07:40:15.000Z,19.54
2018-09-14T07:42:43.370Z,19.46
2018-09-14T07:45:13.216Z,19.54
2018-09-14T07:47:43.999Z,19.54
2018-09-14T07:50:13.437Z,19.53
2018-09-14T07:52:45.185Z,19.56
2018-09-14T07:55:13.553Z,19.55
2018-09-14T07:57:41.941Z,19.59
2018-09-14T08:00:10.283Z,19.56
2018-09-14T08:02:38.892Z,19.51
2018-09-14T08:05:07.295Z,19.51
2018-09-14T08:07:36.049Z,19.56
2018-09-14T08:10:05.634Z,19.58
2018-09-14T08:12:34.048Z,19.52
2018-09-14T08:15:02.450Z,19.51
2018-09-14T08:17:30.860Z,19.48
2018-09-14T08:19:59.377Z,19.54
2018-09-14T08:22:31.764Z,19.58
2018-09-14T08:25:00.157Z,19.63
2018-09-14T08:27:28.532Z,19.58
2018-09-14T08:29:56.885Z,19.56
2018-09-14T08:32:25.459Z,19.58
2018-09-14T08:34:56.260Z,19.61
2018-09-14T08:37:24.659Z,19.65
2018-09-14T08:39:53.615Z,19.66
2018-09-14T08:42:23.009Z,19.65
2018-09-14T08:44:51.360Z,19.62
2018-09-14T08:47:19.728Z,19.62
2018-09-14T08:49:50.219Z,19.65
2018-09-14T08:52:22.994Z,19.64
2018-09-14T08:54:51.316Z,19.57
2018-09-14T08:57:19.626Z,19.50
2018-09-14T08:59:53.657Z,19.45
2018-09-14T09:02:22.056Z,19.43
2018-09-14T09:04:50.397Z,19.44
2018-09-14T09:07:19.416Z,19.41
2018-09-14T09:09:47.748Z,19.41
2018-09-14T09:12:17.882Z,19.43
2018-09-14T09:14:46.339Z,19.50
2018-09-14T09:17:14.727Z,19.57
2018-09-14T09:19:43.103Z,19.63
2018-09-14T09:22:19.722Z,19.66
2018-09-14T09:24:48.169Z,19.66
2018-09-14T09:27:16.537Z,19.67
2018-09-14T09:29:44.951Z,19.72
2018-09-14T09:32:14.220Z,19.77
2018-09-14T09:34:42.544Z,19.82
2018-09-14T09:37:11.047Z,19.89
2018-09-14T09:39:40.458Z,19.93
2018-09-14T09:42:10.615Z,19.97
2018-09-14T09:44:39.175Z,20.02
2018-09-14T09:47:09.609Z,20.03
2018-09-14T09:49:37.967Z,20.09
2018-09-14T09:52:06.662Z,20.15
2018-09-14T09:54:35.013Z,20.23
2018-09-14T09:57:05.154Z,20.26
2018-09-14T09:59:33.779Z,20.31
2018-09-14T10:02:07.705Z,20.36
2018-09-14T10:04:45.543Z,20.41
2018-09-14T10:07:14.267Z,20.49
2018-09-14T10:09:42.588Z,20.54
2018-09-14T10:12:11.173Z,20.57
2018-09-14T10:14:40.217Z,20.58
2018-09-14T10:20:07.764Z,20.63
2018-09-14T10:22:54.497Z,20.66
2018-09-14T10:25:35.097Z,20.64
2018-09-14T10:28:14.292Z,20.61
2018-09-14T10:30:42.673Z,20.61
2018-09-14T10:33:11.065Z,20.61
2018-09-14T10:35:39.471Z,20.61
2018-09-14T10:38:07.905Z,20.61
2018-09-14T10:40:36.305Z,20.64
2018-09-14T10:43:04.706Z,20.69
2018-09-14T10:45:33.087Z,20.70
2018-09-14T10:48:01.531Z,20.72
2018-09-14T10:50:30.192Z,20.72
2018-09-14T10:52:58.563Z,20.70
2018-09-14T10:55:26.909Z,20.70
2018-09-14T10:57:55.537Z,20.67
2018-09-14T11:03:09.429Z,20.80
2018-09-14T11:05:38.164Z,20.84
2018-09-14T11:08:06.796Z,20.89
2018-09-14T11:10:51.059Z,21.00
2018-09-14T11:13:20.282Z,21.07
2018-09-14T11:15:48.877Z,21.11
2018-09-14T11:18:17.339Z,21.16
2018-09-14T11:20:45.731Z,21.18
2018-09-14T11:23:14.964Z,21.17
2018-09-14T11:25:43.478Z,21.12
2018-09-14T11:28:11.767Z,21.16
2018-09-14T11:30:40.199Z,21.24
2018-09-14T11:33:08.783Z,21.29
2018-09-14T11:35:37.228Z,21.30
2018-09-14T11:38:05.912Z,21.27
2018-09-14T11:40:34.276Z,21.17
2018-09-14T11:43:24.856Z,21.10
2018-09-14T11:45:53.530Z,21.14
2018-09-14T11:48:22.084Z,21.22
2018-09-14T11:50:50.437Z,21.27
2018-09-14T11:53:18.871Z,21.30
2018-09-14T11:55:47.300Z,21.34
2018-09-14T11:58:15.772Z,21.41
2018-09-14T12:00:45.103Z,21.50
2018-09-14T12:03:13.422Z,21.57
2018-09-14T12:05:41.757Z,21.67
2018-09-14T12:08:10.343Z,21.87
2018-09-14T12:10:38.724Z,21.94
2018-09-14T12:13:07.112Z,21.88
2018-09-14T12:15:35.627Z,21.81
2018-09-14T12:18:04.090Z,21.67
2018-09-14T12:20:32.446Z,21.60
2018-09-14T12:23:00.885Z,21.57
2018-09-14T12:25:29.300Z,21.58
2018-09-14T12:27:57.789Z,21.59
2018-09-14T12:30:26.318Z,21.56
2018-09-14T12:32:55.121Z,21.49
2018-09-14T12:35:23.446Z,21.55
2018-09-14T12:37:51.841Z,21.68
2018-09-14T12:40:20.179Z,21.90
2018-09-14T12:42:48.581Z,22.17
2018-09-14T12:45:16.933Z,22.25
2018-09-14T12:47:45.275Z,22.26
2018-09-14T12:50:13.737Z,22.26
2018-09-14T12:52:42.119Z,22.19
2018-09-14T12:55:10.573Z,22.13
2018-09-14T12:57:38.959Z,22.13
2018-09-14T13:00:08.008Z,22.15
2018-09-14T13:02:36.688Z,22.19
2018-09-14T13:05:05.335Z,22.21
2018-09-14T13:07:33.723Z,22.23
2018-09-14T13:10:02.065Z,22.28
2018-09-14T13:12:30.558Z,22.38
2018-09-14T13:14:59.166Z,22.43
2018-09-14T13:17:27.516Z,22.46
2018-09-14T13:19:55.895Z,22.53
2018-09-14T13:22:24.427Z,22.60
2018-09-14T13:24:52.831Z,22.64
2018-09-14T13:27:21.245Z,22.62
2018-09-14T13:29:49.657Z,22.61
2018-09-14T13:32:18.131Z,22.65
2018-09-14T13:34:46.586Z,22.68
2018-09-14T13:37:15.003Z,22.68
2018-09-14T13:39:43.419Z,22.70
2018-09-14T13:42:11.937Z,22.74
2018-09-14T13:44:40.344Z,22.78
2018-09-14T13:47:08.761Z,22.85
2018-09-14T13:49:37.167Z,22.94
2018-09-14T13:52:05.703Z,23.03
2018-09-14T13:54:34.088Z,23.12
2018-09-14T13:57:02.479Z,23.21
2018-09-14T13:59:30.894Z,23.32
2018-09-14T14:01:59.357Z,23.37
2018-09-14T14:04:27.783Z,23.45
2018-09-14T14:06:56.157Z,23.51
2018-09-14T14:09:24.567Z,23.56
2018-09-14T14:11:53.025Z,23.62
2018-09-14T14:14:21.499Z,23.71
2018-09-14T14:16:50.077Z,23.77
2018-09-14T14:19:18.501Z,23.81
2018-09-14T14:21:46.918Z,23.83
2018-09-14T14:24:15.365Z,23.71
2018-09-14T14:26:43.734Z,23.63
2018-09-14T14:29:12.209Z,23.63
2018-09-14T14:31:40.595Z,23.52
2018-09-14T14:34:09.323Z,23.44
2018-09-14T14:36:37.823Z,23.46
2018-09-14T14:39:08.424Z,23.47
2018-09-14T14:41:36.902Z,23.42
2018-09-14T14:44:05.507Z,23.44
2018-09-14T14:46:33.943Z,23.45
2018-09-14T14:49:02.646Z,23.46
2018-09-14T14:51:31.307Z,23.44
2018-09-14T14:53:59.679Z,23.42
2018-09-14T14:56:28.014Z,23.52
2018-09-14T14:58:56.503Z,23.67
2018-09-14T15:01:24.999Z,23.72
2018-09-14T15:03:53.434Z,23.68
2018-09-14T15:06:21.899Z,23.74
2018-09-14T15:08:50.283Z,23.74
2018-09-14T15:11:18.679Z,23.74
2018-09-14T15:13:59.904Z,23.80
2018-09-14T15:16:28.367Z,23.79
2018-09-14T15:22:00.888Z,23.82
2018-09-14T15:24:29.295Z,23.77
2018-09-14T15:26:57.669Z,23.77
2018-09-14T15:29:26.069Z,23.85
2018-09-14T15:31:54.413Z,23.88
2018-09-14T15:34:22.811Z,23.87
2018-09-14T15:36:51.843Z,23.86
2018-09-14T15:39:20.266Z,23.84
2018-09-14T15:41:48.658Z,23.83
2018-09-14T15:44:17.318Z,23.85
2018-09-14T15:46:45.703Z,23.81
2018-09-14T15:49:14.151Z,23.78
2018-09-14T15:51:42.677Z,23.76
2018-09-14T15:54:11.047Z,23.72
2018-09-14T15:56:39.424Z,23.64
2018-09-14T15:59:08.660Z,23.62
2018-09-14T16:01:37.007Z,23.61
2018-09-14T16:04:05.399Z,23.61
2018-09-14T16:06:33.923Z,23.64
2018-09-14T16:09:02.375Z,23.63
2018-09-14T16:11:30.779Z,23.62
2018-09-14T16:13:59.501Z,23.62
2018-09-14T16:16:27.847Z,23.59
2018-09-14T16:18:56.412Z,23.56
2018-09-14T16:21:24.808Z,23.51
2018-09-14T16:23:53.200Z,23.47
2018-09-14T16:26:22.119Z,23.44
2018-09-14T16:28:50.580Z,23.37
2018-09-14T16:31:19.008Z,23.34
2018-09-14T16:33:47.462Z,23.30
2018-09-14T16:36:15.875Z,23.25
2018-09-14T16:38:44.217Z,23.21
2018-09-14T16:41:12.563Z,23.18
2018-09-14T16:43:41.255Z,23.17
2018-09-14T16:46:10.743Z,23.14
2018-09-14T16:48:39.229Z,23.10
2018-09-14T16:51:07.663Z,23.06
2018-09-14T16:53:37.259Z,23.02
2018-09-14T16:56:05.651Z,22.97
2018-09-14T16:58:34.071Z,22.91
2018-09-14T17:01:02.515Z,22.85
2018-09-14T17:03:31.026Z,22.77
2018-09-14T17:05:59.517Z,22.73
2018-09-14T17:08:27.927Z,22.69
2018-09-14T17:10:56.578Z,22.66
2018-09-14T17:13:24.939Z,22.61
2018-09-14T17:15:53.384Z,22.58
2018-09-14T17:18:21.737Z,22.52
2018-09-14T17:20:50.176Z,22.46
2018-09-14T17:23:18.609Z,22.44
2018-09-14T17:25:46.999Z,22.40
2018-09-14T17:28:15.428Z,22.36
2018-09-14T17:30:43.836Z,22.34
2018-09-14T17:33:12.184Z,22.33
2018-09-14T17:35:40.842Z,22.28
2018-09-14T17:38:09.245Z,22.23
2018-09-14T17:40:37.580Z,22.18
2018-09-14T17:43:06.073Z,22.13
2018-09-14T17:45:34.408Z,22.06
2018-09-14T17:48:02.912Z,22.02
2018-09-14T17:50:31.334Z,21.98
2018-09-14T17:52:59.760Z,21.94
2018-09-14T17:55:28.165Z,21.89
2018-09-14T17:57:56.708Z,21.78
2018-09-14T18:00:25.105Z,21.57
2018-09-14T18:02:53.461Z,21.37
2018-09-14T18:05:21.853Z,21.22
2018-09-14T18:07:50.276Z,21.16
2018-09-14T18:10:18.636Z,21.01
2018-09-14T18:12:47.101Z,20.81
2018-09-14T18:15:15.490Z,20.79
2018-09-14T18:17:43.874Z,20.82
2018-09-14T18:20:12.325Z,20.89
2018-09-14T18:22:40.852Z,20.95
2018-09-14T18:25:09.414Z,20.95
2018-09-14T18:27:37.871Z,20.95
2018-09-14T18:30:06.418Z,20.93
2018-09-14T18:32:34.734Z,20.90
2018-09-14T18:35:03.524Z,20.94
2018-09-14T18:37:31.940Z,20.97
2018-09-14T18:40:00.767Z,20.91
2018-09-14T18:42:29.240Z,20.88
2018-09-14T18:44:57.631Z,20.82
2018-09-14T18:47:26.047Z,20.65
2018-09-14T18:49:54.608Z,20.49
2018-09-14T18:52:22.973Z,20.35
2018-09-14T18:54:51.451Z,20.21
2018-09-14T18:57:19.970Z,20.08
2018-09-14T18:59:48.337Z,20.03
2018-09-14T19:02:16.741Z,20.01
2018-09-14T19:04:45.627Z,20.00
2018-09-14T19:07:14.075Z,20.05
2018-09-14T19:09:42.461Z,20.16
2018-09-14T19:12:10.854Z,20.18
2018-09-14T19:14:39.247Z,20.14
2018-09-14T19:17:07.704Z,20.02
2018-09-14T19:19:36.168Z,19.92
2018-09-14T19:22:04.544Z,19.91
2018-09-14T19:24:32.989Z,19.92
2018-09-14T19:27:01.512Z,19.79
2018-09-14T19:29:29.979Z,19.68
2018-09-14T19:31:58.328Z,19.61
2018-09-14T19:34:26.792Z,19.65
2018-09-14T19:36:55.159Z,19.70
2018-09-14T19:39:24.059Z,19.69
2018-09-14T19:41:52.535Z,19.73
2018-09-14T19:44:20.905Z,19.77
2018-09-14T19:46:49.355Z,19.83
2018-09-14T19:49:17.821Z,19.91
2018-09-14T19:51:46.228Z,19.94
2018-09-14T19:54:14.726Z,19.90
2018-09-14T19:56:43.332Z,19.96
2018-09-14T19:59:11.721Z,19.97
2018-09-14T20:01:40.160Z,19.89
2018-09-14T20:04:08.671Z,19.89
2018-09-14T20:06:37.017Z,19.86
2018-09-14T20:09:09.533Z,19.88
2018-09-14T20:11:38.010Z,19.92
2018-09-14T20:14:06.323Z,19.91
2018-09-14T20:16:34.751Z,19.88
2018-09-14T20:19:03.104Z,19.84
2018-09-14T20:21:31.479Z,19.81
2018-09-14T20:24:00.060Z,19.73
2018-09-14T20:26:28.710Z,19.65
2018-09-14T20:28:57.321Z,19.58
2018-09-14T20:31:25.807Z,19.59
2018-09-14T20:33:54.240Z,19.61
2018-09-14T20:36:22.704Z,19.60
2018-09-14T20:38:51.352Z,19.56
2018-09-14T20:41:19.725Z,19.53
2018-09-14T20:43:48.113Z,19.53
2018-09-14T20:46:16.531Z,19.53
2018-09-14T20:48:44.878Z,19.56
2018-09-14T20:51:14.104Z,19.55
2018-09-14T20:53:43.217Z,19.51
2018-09-14T20:56:11.699Z,19.48
2018-09-14T20:58:40.073Z,19.50
2018-09-14T21:01:08.432Z,19.50
2018-09-14T21:03:36.783Z,19.55
2018-09-14T21:06:05.125Z,19.61
2018-09-14T21:08:33.575Z,19.65
2018-09-14T21:11:01.927Z,19.66
2018-09-14T21:13:30.284Z,19.66
2018-09-14T21:15:58.863Z,19.66
2018-09-14T21:18:27.248Z,19.63
2018-09-14T21:20:55.636Z,19.59
2018-09-14T21:23:24.040Z,19.51
2018-09-14T21:25:52.487Z,19.42
2018-09-14T21:28:20.878Z,19.33
2018-09-14T21:30:49.348Z,19.28
2018-09-14T21:33:17.725Z,19.22
2018-09-14T21:35:46.104Z,19.15
2018-09-14T21:38:14.684Z,19.13
2018-09-14T21:40:43.040Z,19.06
2018-09-14T21:43:11.416Z,18.96
2018-09-14T21:45:39.807Z,18.96
2018-09-14T21:48:08.198Z,18.96
2018-09-14T21:50:36.580Z,18.96
2018-09-14T21:53:04.944Z,18.95
2018-09-14T21:55:33.274Z,18.97
2018-09-14T21:58:01.636Z,18.96
2018-09-14T22:00:35.697Z,18.93
2018-09-14T22:03:04.113Z,18.83
2018-09-14T22:05:32.458Z,18.73
2018-09-14T22:08:00.864Z,18.67
2018-09-14T22:10:29.203Z,18.59
2018-09-14T22:12:57.615Z,18.59
2018-09-14T22:15:25.987Z,18.64
2018-09-14T22:17:54.378Z,18.71
2018-09-14T22:20:22.760Z,18.73
2018-09-14T22:22:52.040Z,18.67
2018-09-14T22:25:20.459Z,18.60
2018-09-14T22:27:48.860Z,18.58
2018-09-14T22:30:17.223Z,18.50
2018-09-14T22:32:45.555Z,18.41
2018-09-14T22:35:14.080Z,18.35
2018-09-14T22:37:42.924Z,18.36
2018-09-14T22:40:11.266Z,18.40
2018-09-14T22:42:39.595Z,18.35
2018-09-14T22:45:08.278Z,18.33
2018-09-14T22:47:36.722Z,18.34
2018-09-14T22:50:05.118Z,18.35
2018-09-14T22:52:33.707Z,18.30
2018-09-14T22:55:02.131Z,18.24
2018-09-14T22:57:30.473Z,18.24
2018-09-14T22:59:58.921Z,18.27
2018-09-14T23:02:27.348Z,18.22
2018-09-14T23:04:55.708Z,18.19
2018-09-14T23:07:24.295Z,18.16
2018-09-14T23:09:52.626Z,18.20
2018-09-14T23:12:21.066Z,18.25
2018-09-14T23:14:50.196Z,18.32
2018-09-14T23:17:18.621Z,18.34
2018-09-14T23:19:47.023Z,18.34
2018-09-14T23:22:15.582Z,18.27
2018-09-14T23:24:44.582Z,18.13
2018-09-14T23:27:12.898Z,18.02
2018-09-14T23:29:41.430Z,17.94
2018-09-14T23:32:09.781Z,17.95
2018-09-14T23:34:38.194Z,18.00
2018-09-14T23:37:06.767Z,18.04
2018-09-14T23:39:35.195Z,18.15
2018-09-14T23:42:03.544Z,18.17
2018-09-14T23:44:31.962Z,18.20
2018-09-14T23:47:00.318Z,18.19
2018-09-14T23:49:28.668Z,18.11
2018-09-14T23:51:57.092Z,18.09
2018-09-14T23:54:25.424Z,18.09
2018-09-14T23:56:53.804Z,18.18
2018-09-14T23:59:22.224Z,18.26
